sensor_id;sensor_type;location;lat;lon;timestamp;pressure;altitude;pressure_sealevel;temperature
27986;BMP280;15453;53.692;10.168;2022-08-04T00:00:23;101180.28;;;28.55
27986;BMP280;15453;53.692;10.168;2022-08-04T00:03:04;101183.47;;;28.53
27986;BMP280;15453;53.692;10.168;2022-08-04T00:08:21;101193.34;;;28.47
27986;BMP280;15453;53.692;10.168;2022-08-04T00:10:53;101187.59;;;28.44
27986;BMP280;15453;53.692;10.168;2022-08-04T00:13:22;101185.38;;;28.37
27986;BMP280;15453;53.692;10.168;2022-08-04T00:15:51;101180.69;;;28.41
27986;BMP280;15453;53.692;10.168;2022-08-04T00:18:25;101178.91;;;28.37
27986;BMP280;15453;53.692;10.168;2022-08-04T00:20:54;101178.91;;;28.37
27986;BMP280;15453;53.692;10.168;2022-08-04T00:23:22;101173.09;;;28.30
27986;BMP280;15453;53.692;10.168;2022-08-04T00:25:49;101179.44;;;28.27
27986;BMP280;15453;53.692;10.168;2022-08-04T00:28:14;101179.44;;;28.27
27986;BMP280;15453;53.692;10.168;2022-08-04T00:30:40;101167.94;;;28.20
27986;BMP280;15453;53.692;10.168;2022-08-04T00:33:07;101165.84;;;28.17
27986;BMP280;15453;53.692;10.168;2022-08-04T00:35:32;101162.56;;;28.15
27986;BMP280;15453;53.692;10.168;2022-08-04T00:37:58;101171.72;;;28.12
27986;BMP280;15453;53.692;10.168;2022-08-04T00:43:05;101164.22;;;28.04
27986;BMP280;15453;53.692;10.168;2022-08-04T00:45:51;101164.13;;;28.00
27986;BMP280;15453;53.692;10.168;2022-08-04T00:53:59;101164.28;;;27.92
27986;BMP280;15453;53.692;10.168;2022-08-04T00:59:53;101151.34;;;27.79
27986;BMP280;15453;53.692;10.168;2022-08-04T01:11:24;101144.00;;;27.62
27986;BMP280;15453;53.692;10.168;2022-08-04T01:14:07;101147.84;;;27.58
27986;BMP280;15453;53.692;10.168;2022-08-04T01:16:47;101128.88;;;27.55
27986;BMP280;15453;53.692;10.168;2022-08-04T01:19:42;101129.94;;;27.50
27986;BMP280;15453;53.692;10.168;2022-08-04T01:22:28;101136.59;;;27.46
27986;BMP280;15453;53.692;10.168;2022-08-04T01:28:08;101133.22;;;27.40
27986;BMP280;15453;53.692;10.168;2022-08-04T01:30:41;101141.53;;;27.37
27986;BMP280;15453;53.692;10.168;2022-08-04T01:33:08;101136.63;;;27.34
27986;BMP280;15453;53.692;10.168;2022-08-04T01:38:17;101130.66;;;27.23
27986;BMP280;15453;53.692;10.168;2022-08-04T01:40:44;101130.53;;;27.20
27986;BMP280;15453;53.692;10.168;2022-08-04T01:43:12;101130.38;;;27.16
27986;BMP280;15453;53.692;10.168;2022-08-04T01:45:39;101131.06;;;27.13
27986;BMP280;15453;53.692;10.168;2022-08-04T01:48:06;101123.72;;;27.09
27986;BMP280;15453;53.692;10.168;2022-08-04T01:50:33;101117.94;;;27.05
27986;BMP280;15453;53.692;10.168;2022-08-04T01:52:59;101123.13;;;27.03
27986;BMP280;15453;53.692;10.168;2022-08-04T01:55:27;101123.13;;;27.03
27986;BMP280;15453;53.692;10.168;2022-08-04T01:57:53;101115.25;;;26.97
27986;BMP280;15453;53.692;10.168;2022-08-04T02:00:23;101121.56;;;26.94
27986;BMP280;15453;53.692;10.168;2022-08-04T02:02:50;101115.13;;;26.93
27986;BMP280;15453;53.692;10.168;2022-08-04T02:05:18;101115.13;;;26.93
27986;BMP280;15453;53.692;10.168;2022-08-04T02:10:25;101109.63;;;26.85
27986;BMP280;15453;53.692;10.168;2022-08-04T02:15:37;101105.38;;;26.78
27986;BMP280;15453;53.692;10.168;2022-08-04T02:18:20;101109.25;;;26.74
27986;BMP280;15453;53.692;10.168;2022-08-04T02:20:48;101099.88;;;26.70
27986;BMP280;15453;53.692;10.168;2022-08-04T02:23:15;101097.41;;;26.68
27986;BMP280;15453;53.692;10.168;2022-08-04T02:25:57;101105.22;;;26.63
27986;BMP280;15453;53.692;10.168;2022-08-04T02:29:00;101102.13;;;26.56
27986;BMP280;15453;53.692;10.168;2022-08-04T02:31:30;101102.13;;;26.56
27986;BMP280;15453;53.692;10.168;2022-08-04T02:34:08;101098.03;;;26.53
27986;BMP280;15453;53.692;10.168;2022-08-04T02:36:37;101091.47;;;26.49
27986;BMP280;15453;53.692;10.168;2022-08-04T02:39:05;101091.47;;;26.49
27986;BMP280;15453;53.692;10.168;2022-08-04T02:41:31;101085.28;;;26.44
27986;BMP280;15453;53.692;10.168;2022-08-04T02:44:02;101090.75;;;26.40
27986;BMP280;15453;53.692;10.168;2022-08-04T02:46:29;101090.63;;;26.37
27986;BMP280;15453;53.692;10.168;2022-08-04T02:48:56;101091.66;;;26.32
27986;BMP280;15453;53.692;10.168;2022-08-04T02:51:41;101084.75;;;26.30
27986;BMP280;15453;53.692;10.168;2022-08-04T02:54:08;101087.31;;;26.23
27986;BMP280;15453;53.692;10.168;2022-08-04T02:56:35;101083.66;;;26.22
27986;BMP280;15453;53.692;10.168;2022-08-04T02:59:04;101086.34;;;26.19
27986;BMP280;15453;53.692;10.168;2022-08-04T03:01:31;101086.34;;;26.19
27986;BMP280;15453;53.692;10.168;2022-08-04T03:07:02;101080.81;;;26.10
27986;BMP280;15453;53.692;10.168;2022-08-04T03:20:51;101077.16;;;25.98
27986;BMP280;15453;53.692;10.168;2022-08-04T03:32:22;101079.38;;;25.84
27986;BMP280;15453;53.692;10.168;2022-08-04T03:46:42;101071.59;;;25.69
27986;BMP280;15453;53.692;10.168;2022-08-04T03:55:37;101068.16;;;25.63
27986;BMP280;15453;53.692;10.168;2022-08-04T03:58:33;101068.81;;;25.60
27986;BMP280;15453;53.692;10.168;2022-08-04T04:01:20;101070.81;;;25.60
27986;BMP280;15453;53.692;10.168;2022-08-04T04:06:48;101066.69;;;25.57
27986;BMP280;15453;53.692;10.168;2022-08-04T04:09:39;101063.44;;;25.55
27986;BMP280;15453;53.692;10.168;2022-08-04T04:15:41;101072.53;;;25.52
27986;BMP280;15453;53.692;10.168;2022-08-04T04:18:31;101063.97;;;25.49
27986;BMP280;15453;53.692;10.168;2022-08-04T04:21:17;101066.44;;;25.50
27986;BMP280;15453;53.692;10.168;2022-08-04T04:31:58;101059.88;;;25.46
27986;BMP280;15453;53.692;10.168;2022-08-04T04:34:38;101067.44;;;25.46
27986;BMP280;15453;53.692;10.168;2022-08-04T04:37:20;101052.59;;;25.45
27986;BMP280;15453;53.692;10.168;2022-08-04T04:40:05;101055.28;;;25.42
27986;BMP280;15453;53.692;10.168;2022-08-04T04:43:12;101054.06;;;25.51
27986;BMP280;15453;53.692;10.168;2022-08-04T04:46:15;101059.00;;;25.54
27986;BMP280;15453;53.692;10.168;2022-08-04T04:54:05;101053.63;;;25.61
27986;BMP280;15453;53.692;10.168;2022-08-04T04:56:39;101050.81;;;25.61
27986;BMP280;15453;53.692;10.168;2022-08-04T04:59:13;101048.97;;;25.65
27986;BMP280;15453;53.692;10.168;2022-08-04T05:10:26;101047.06;;;25.78
27986;BMP280;15453;53.692;10.168;2022-08-04T05:13:03;101051.84;;;25.77
27986;BMP280;15453;53.692;10.168;2022-08-04T05:15:41;101040.75;;;25.81
27986;BMP280;15453;53.692;10.168;2022-08-04T05:18:08;101031.66;;;25.84
27986;BMP280;15453;53.692;10.168;2022-08-04T05:20:45;101032.59;;;25.88
27986;BMP280;15453;53.692;10.168;2022-08-04T05:23:16;101035.91;;;25.90
27986;BMP280;15453;53.692;10.168;2022-08-04T05:25:46;101032.91;;;25.95
27986;BMP280;15453;53.692;10.168;2022-08-04T05:28:22;101030.22;;;25.98
27986;BMP280;15453;53.692;10.168;2022-08-04T05:31:01;101034.00;;;26.02
27986;BMP280;15453;53.692;10.168;2022-08-04T05:33:38;101042.53;;;26.06
27986;BMP280;15453;53.692;10.168;2022-08-04T05:36:09;101031.09;;;26.11
27986;BMP280;15453;53.692;10.168;2022-08-04T05:38:38;101035.66;;;26.15
27986;BMP280;15453;53.692;10.168;2022-08-04T05:41:05;101034.28;;;26.21
27986;BMP280;15453;53.692;10.168;2022-08-04T05:43:32;101020.38;;;26.25
27986;BMP280;15453;53.692;10.168;2022-08-04T05:45:58;101032.22;;;26.30
27986;BMP280;15453;53.692;10.168;2022-08-04T05:48:25;101021.94;;;26.34
27986;BMP280;15453;53.692;10.168;2022-08-04T05:50:51;101024.50;;;26.39
27986;BMP280;15453;53.692;10.168;2022-08-04T05:53:18;101023.09;;;26.45
27986;BMP280;15453;53.692;10.168;2022-08-04T05:55:45;101019.25;;;26.50
27986;BMP280;15453;53.692;10.168;2022-08-04T05:58:10;101019.50;;;26.57
27986;BMP280;15453;53.692;10.168;2022-08-04T06:00:37;101014.53;;;26.63
27986;BMP280;15453;53.692;10.168;2022-08-04T06:03:04;101015.09;;;26.68
27986;BMP280;15453;53.692;10.168;2022-08-04T06:05:30;101021.28;;;26.73
27986;BMP280;15453;53.692;10.168;2022-08-04T06:07:56;101014.63;;;26.78
27986;BMP280;15453;53.692;10.168;2022-08-04T06:10:23;101018.75;;;26.93
27986;BMP280;15453;53.692;10.168;2022-08-04T06:12:55;101029.38;;;26.99
27986;BMP280;15453;53.692;10.168;2022-08-04T06:15:23;101022.81;;;27.07
27986;BMP280;15453;53.692;10.168;2022-08-04T06:17:52;101025.03;;;27.14
27986;BMP280;15453;53.692;10.168;2022-08-04T06:20:20;101017.19;;;27.19
27986;BMP280;15453;53.692;10.168;2022-08-04T06:22:51;101015.44;;;27.27
27986;BMP280;15453;53.692;10.168;2022-08-04T06:25:22;101023.63;;;27.32
27986;BMP280;15453;53.692;10.168;2022-08-04T06:27:49;101023.63;;;27.32
27986;BMP280;15453;53.692;10.168;2022-08-04T06:30:15;101016.13;;;27.36
27986;BMP280;15453;53.692;10.168;2022-08-04T06:32:43;101016.72;;;27.41
27986;BMP280;15453;53.692;10.168;2022-08-04T06:35:17;101014.81;;;27.45
27986;BMP280;15453;53.692;10.168;2022-08-04T06:37:44;101012.59;;;27.51
27986;BMP280;15453;53.692;10.168;2022-08-04T06:40:15;101010.69;;;27.55
27986;BMP280;15453;53.692;10.168;2022-08-04T06:42:42;101007.63;;;27.60
27986;BMP280;15453;53.692;10.168;2022-08-04T06:45:09;101001.28;;;27.63
27986;BMP280;15453;53.692;10.168;2022-08-04T06:47:36;101002.66;;;27.69
27986;BMP280;15453;53.692;10.168;2022-08-04T06:50:03;100996.78;;;27.74
27986;BMP280;15453;53.692;10.168;2022-08-04T06:52:29;101000.88;;;27.76
27986;BMP280;15453;53.692;10.168;2022-08-04T06:54:55;100998.97;;;27.80
27986;BMP280;15453;53.692;10.168;2022-08-04T06:57:26;100996.31;;;27.84
27986;BMP280;15453;53.692;10.168;2022-08-04T07:00:12;100993.94;;;27.86
27986;BMP280;15453;53.692;10.168;2022-08-04T07:02:43;100997.69;;;27.90
27986;BMP280;15453;53.692;10.168;2022-08-04T07:05:10;100991.78;;;27.95
27986;BMP280;15453;53.692;10.168;2022-08-04T07:07:35;100991.53;;;28.00
27986;BMP280;15453;53.692;10.168;2022-08-04T07:10:02;100987.28;;;28.06
27986;BMP280;15453;53.692;10.168;2022-08-04T07:12:28;100985.75;;;28.08
27986;BMP280;15453;53.692;10.168;2022-08-04T07:14:54;100981.03;;;28.12
27986;BMP280;15453;53.692;10.168;2022-08-04T07:17:20;100986.38;;;28.17
27986;BMP280;15453;53.692;10.168;2022-08-04T07:19:46;100989.75;;;28.23
27986;BMP280;15453;53.692;10.168;2022-08-04T07:22:12;100980.59;;;28.26
27986;BMP280;15453;53.692;10.168;2022-08-04T07:24:37;100979.50;;;28.30
27986;BMP280;15453;53.692;10.168;2022-08-04T07:27:04;100982.03;;;28.35
27986;BMP280;15453;53.692;10.168;2022-08-04T07:29:31;100978.97;;;28.40
27986;BMP280;15453;53.692;10.168;2022-08-04T07:31:57;100979.53;;;28.46
27986;BMP280;15453;53.692;10.168;2022-08-04T07:34:25;100973.66;;;28.51
27986;BMP280;15453;53.692;10.168;2022-08-04T07:36:52;100984.28;;;28.57
27986;BMP280;15453;53.692;10.168;2022-08-04T07:39:18;100976.81;;;28.65
27986;BMP280;15453;53.692;10.168;2022-08-04T07:41:43;100979.72;;;28.84
27986;BMP280;15453;53.692;10.168;2022-08-04T07:44:12;100973.88;;;28.92
27986;BMP280;15453;53.692;10.168;2022-08-04T07:46:37;100973.88;;;28.92
27986;BMP280;15453;53.692;10.168;2022-08-04T07:49:04;100969.59;;;28.98
27986;BMP280;15453;53.692;10.168;2022-08-04T07:51:30;100961.31;;;29.05
27986;BMP280;15453;53.692;10.168;2022-08-04T07:53:56;100963.47;;;29.12
27986;BMP280;15453;53.692;10.168;2022-08-04T07:56:23;100959.25;;;29.21
27986;BMP280;15453;53.692;10.168;2022-08-04T07:58:49;100956.59;;;29.28
27986;BMP280;15453;53.692;10.168;2022-08-04T08:01:14;100952.75;;;29.36
27986;BMP280;15453;53.692;10.168;2022-08-04T08:03:40;100954.91;;;29.43
27986;BMP280;15453;53.692;10.168;2022-08-04T08:06:07;100951.06;;;29.51
27986;BMP280;15453;53.692;10.168;2022-08-04T08:08:36;100947.59;;;29.57
27986;BMP280;15453;53.692;10.168;2022-08-04T08:11:02;100946.91;;;29.64
27986;BMP280;15453;53.692;10.168;2022-08-04T08:13:27;100946.63;;;29.69
27986;BMP280;15453;53.692;10.168;2022-08-04T08:15:53;100945.56;;;29.77
27986;BMP280;15453;53.692;10.168;2022-08-04T08:18:19;100951.81;;;29.86
27986;BMP280;15453;53.692;10.168;2022-08-04T08:20:44;100945.47;;;29.92
27986;BMP280;15453;53.692;10.168;2022-08-04T08:23:10;100948.06;;;30.01
27986;BMP280;15453;53.692;10.168;2022-08-04T08:25:36;100943.38;;;30.08
27986;BMP280;15453;53.692;10.168;2022-08-04T08:28:03;100942.75;;;30.18
27986;BMP280;15453;53.692;10.168;2022-08-04T08:30:29;100943.72;;;30.26
27986;BMP280;15453;53.692;10.168;2022-08-04T08:32:55;100941.47;;;30.35
27986;BMP280;15453;53.692;10.168;2022-08-04T08:35:22;100936.75;;;30.42
27986;BMP280;15453;53.692;10.168;2022-08-04T08:37:56;100936.03;;;30.49
27986;BMP280;15453;53.692;10.168;2022-08-04T08:40:30;100946.28;;;30.57
27986;BMP280;15453;53.692;10.168;2022-08-04T08:43:23;100932.69;;;30.66
27986;BMP280;15453;53.692;10.168;2022-08-04T08:51:22;100916.56;;;30.92
27986;BMP280;15453;53.692;10.168;2022-08-04T09:08:46;100915.84;;;31.55
27986;BMP280;15453;53.692;10.168;2022-08-04T09:11:27;100913.88;;;31.62
27986;BMP280;15453;53.692;10.168;2022-08-04T09:13:59;100912.78;;;31.70
27986;BMP280;15453;53.692;10.168;2022-08-04T09:16:43;100907.06;;;31.67
27986;BMP280;15453;53.692;10.168;2022-08-04T09:19:14;100910.94;;;31.85
27986;BMP280;15453;53.692;10.168;2022-08-04T09:21:57;100909.81;;;31.93
27986;BMP280;15453;53.692;10.168;2022-08-04T09:27:20;100903.03;;;32.04
27986;BMP280;15453;53.692;10.168;2022-08-04T09:30:03;100906.81;;;32.15
27986;BMP280;15453;53.692;10.168;2022-08-04T09:37:51;100903.06;;;32.44
27986;BMP280;15453;53.692;10.168;2022-08-04T09:40:32;100893.84;;;32.54
27986;BMP280;15453;53.692;10.168;2022-08-04T09:43:08;100886.97;;;32.62
27986;BMP280;15453;53.692;10.168;2022-08-04T09:45:51;100887.03;;;32.73
27986;BMP280;15453;53.692;10.168;2022-08-04T09:48:28;100893.25;;;32.82
27986;BMP280;15453;53.692;10.168;2022-08-04T09:50:58;100886.81;;;32.92
27986;BMP280;15453;53.692;10.168;2022-08-04T09:54:04;100887.69;;;33.06
27986;BMP280;15453;53.692;10.168;2022-08-04T09:56:40;100887.69;;;33.06
27986;BMP280;15453;53.692;10.168;2022-08-04T09:59:24;100873.97;;;33.15
27986;BMP280;15453;53.692;10.168;2022-08-04T10:01:54;100880.09;;;33.24
27986;BMP280;15453;53.692;10.168;2022-08-04T10:04:21;100879.75;;;33.33
27986;BMP280;15453;53.692;10.168;2022-08-04T10:07:03;100873.72;;;33.52
27986;BMP280;15453;53.692;10.168;2022-08-04T10:18:01;100864.47;;;33.72
27986;BMP280;15453;53.692;10.168;2022-08-04T10:20:40;100857.59;;;33.80
27986;BMP280;15453;53.692;10.168;2022-08-04T10:23:30;100855.19;;;33.86
27986;BMP280;15453;53.692;10.168;2022-08-04T10:29:29;100862.91;;;34.10
27986;BMP280;15453;53.692;10.168;2022-08-04T10:32:01;100862.91;;;34.10
27986;BMP280;15453;53.692;10.168;2022-08-04T10:34:35;100855.63;;;34.16
27986;BMP280;15453;53.692;10.168;2022-08-04T10:37:13;100848.34;;;34.36
27986;BMP280;15453;53.692;10.168;2022-08-04T10:39:52;100848.34;;;34.36
27986;BMP280;15453;53.692;10.168;2022-08-04T10:42:48;100852.78;;;34.47
27986;BMP280;15453;53.692;10.168;2022-08-04T10:45:18;100852.78;;;34.51
27986;BMP280;15453;53.692;10.168;2022-08-04T10:48:04;100852.00;;;34.50
27986;BMP280;15453;53.692;10.168;2022-08-04T10:50:30;100851.16;;;34.53
27986;BMP280;15453;53.692;10.168;2022-08-04T10:53:03;100851.16;;;34.53
27986;BMP280;15453;53.692;10.168;2022-08-04T10:55:37;100830.44;;;34.56
27986;BMP280;15453;53.692;10.168;2022-08-04T10:58:06;100839.78;;;34.60
27986;BMP280;15453;53.692;10.168;2022-08-04T11:00:35;100839.78;;;34.60
27986;BMP280;15453;53.692;10.168;2022-08-04T11:05:32;100828.78;;;34.80
27986;BMP280;15453;53.692;10.168;2022-08-04T11:08:21;100828.78;;;34.80
27986;BMP280;15453;53.692;10.168;2022-08-04T11:10:51;100821.38;;;35.03
27986;BMP280;15453;53.692;10.168;2022-08-04T11:13:21;100821.72;;;35.12
27986;BMP280;15453;53.692;10.168;2022-08-04T11:15:53;100824.97;;;35.21
27986;BMP280;15453;53.692;10.168;2022-08-04T11:18:54;100826.19;;;35.27
27986;BMP280;15453;53.692;10.168;2022-08-04T11:21:27;100826.19;;;35.27
27986;BMP280;15453;53.692;10.168;2022-08-04T11:24:09;100815.16;;;35.36
27986;BMP280;15453;53.692;10.168;2022-08-04T11:26:44;100812.59;;;35.56
27986;BMP280;15453;53.692;10.168;2022-08-04T11:29:39;100812.59;;;35.56
27986;BMP280;15453;53.692;10.168;2022-08-04T11:32:25;100802.38;;;35.62
27986;BMP280;15453;53.692;10.168;2022-08-04T11:34:59;100801.91;;;35.74
27986;BMP280;15453;53.692;10.168;2022-08-04T11:37:29;100795.75;;;35.86
27986;BMP280;15453;53.692;10.168;2022-08-04T11:40:06;100810.59;;;36.08
27986;BMP280;15453;53.692;10.168;2022-08-04T11:42:37;100810.59;;;36.08
27986;BMP280;15453;53.692;10.168;2022-08-04T11:45:14;100791.41;;;36.15
27986;BMP280;15453;53.692;10.168;2022-08-04T11:47:48;100798.16;;;36.39
27986;BMP280;15453;53.692;10.168;2022-08-04T11:50:34;100795.97;;;36.50
27986;BMP280;15453;53.692;10.168;2022-08-04T11:53:03;100795.97;;;36.50
27986;BMP280;15453;53.692;10.168;2022-08-04T11:55:30;100790.94;;;36.64
27986;BMP280;15453;53.692;10.168;2022-08-04T11:57:56;100798.66;;;36.67
27986;BMP280;15453;53.692;10.168;2022-08-04T12:00:24;100798.66;;;36.67
27986;BMP280;15453;53.692;10.168;2022-08-04T12:05:34;100799.06;;;36.69
27986;BMP280;15453;53.692;10.168;2022-08-04T12:11:04;100786.03;;;36.68
27986;BMP280;15453;53.692;10.168;2022-08-04T12:13:42;100787.22;;;36.71
27986;BMP280;15453;53.692;10.168;2022-08-04T12:16:16;100775.00;;;36.70
27986;BMP280;15453;53.692;10.168;2022-08-04T12:18:48;100779.03;;;36.73
27986;BMP280;15453;53.692;10.168;2022-08-04T12:21:48;100769.88;;;36.88
27986;BMP280;15453;53.692;10.168;2022-08-04T12:24:19;100769.88;;;36.88
27986;BMP280;15453;53.692;10.168;2022-08-04T12:26:51;100759.75;;;36.84
27986;BMP280;15453;53.692;10.168;2022-08-04T12:29:18;100768.41;;;37.07
27986;BMP280;15453;53.692;10.168;2022-08-04T12:31:52;100756.44;;;37.19
27986;BMP280;15453;53.692;10.168;2022-08-04T12:34:39;100747.38;;;37.27
27986;BMP280;15453;53.692;10.168;2022-08-04T12:37:17;100753.53;;;37.52
27986;BMP280;15453;53.692;10.168;2022-08-04T12:39:50;100753.53;;;37.52
27986;BMP280;15453;53.692;10.168;2022-08-04T12:42:22;100743.31;;;37.78
27986;BMP280;15453;53.692;10.168;2022-08-04T12:44:48;100743.31;;;37.78
27986;BMP280;15453;53.692;10.168;2022-08-04T12:47:22;100735.19;;;37.99
27986;BMP280;15453;53.692;10.168;2022-08-04T12:49:48;100735.19;;;37.99
27986;BMP280;15453;53.692;10.168;2022-08-04T12:52:16;100733.66;;;38.18
27986;BMP280;15453;53.692;10.168;2022-08-04T12:54:45;100733.66;;;38.18
27986;BMP280;15453;53.692;10.168;2022-08-04T12:57:12;100724.06;;;38.28
27986;BMP280;15453;53.692;10.168;2022-08-04T12:59:39;100740.34;;;38.31
27986;BMP280;15453;53.692;10.168;2022-08-04T13:02:44;100726.03;;;38.31
27986;BMP280;15453;53.692;10.168;2022-08-04T13:05:06;100722.00;;;38.28
27986;BMP280;15453;53.692;10.168;2022-08-04T13:07:38;100719.59;;;38.27
27986;BMP280;15453;53.692;10.168;2022-08-04T13:10:15;100719.59;;;38.27
27986;BMP280;15453;53.692;10.168;2022-08-04T13:12:50;100715.66;;;38.17
27986;BMP280;15453;53.692;10.168;2022-08-04T13:15:19;100715.66;;;38.17
27986;BMP280;15453;53.692;10.168;2022-08-04T13:17:54;100706.03;;;38.08
27986;BMP280;15453;53.692;10.168;2022-08-04T13:20:25;100707.75;;;38.02
27986;BMP280;15453;53.692;10.168;2022-08-04T13:22:50;100706.59;;;37.99
27986;BMP280;15453;53.692;10.168;2022-08-04T13:25:16;100704.22;;;37.94
27986;BMP280;15453;53.692;10.168;2022-08-04T13:27:42;100704.22;;;37.94
27986;BMP280;15453;53.692;10.168;2022-08-04T13:30:11;100704.72;;;37.89
27986;BMP280;15453;53.692;10.168;2022-08-04T13:32:37;100709.44;;;37.99
27986;BMP280;15453;53.692;10.168;2022-08-04T13:35:06;100701.22;;;38.05
27986;BMP280;15453;53.692;10.168;2022-08-04T13:37:35;100701.22;;;38.05
27986;BMP280;15453;53.692;10.168;2022-08-04T13:40:03;100699.56;;;38.04
27986;BMP280;15453;53.692;10.168;2022-08-04T13:42:29;100699.56;;;38.04
27986;BMP280;15453;53.692;10.168;2022-08-04T13:44:57;100680.84;;;37.99
27986;BMP280;15453;53.692;10.168;2022-08-04T13:47:34;100682.88;;;37.99
27986;BMP280;15453;53.692;10.168;2022-08-04T13:50:11;100684.22;;;37.94
27986;BMP280;15453;53.692;10.168;2022-08-04T13:52:39;100684.88;;;38.02
27986;BMP280;15453;53.692;10.168;2022-08-04T13:55:05;100686.91;;;38.05
27986;BMP280;15453;53.692;10.168;2022-08-04T13:57:35;100676.22;;;38.09
27986;BMP280;15453;53.692;10.168;2022-08-04T14:00:07;100676.22;;;38.09
27986;BMP280;15453;53.692;10.168;2022-08-04T14:02:42;100655.28;;;38.12
27986;BMP280;15453;53.692;10.168;2022-08-04T14:05:13;100664.59;;;38.16
27986;BMP280;15453;53.692;10.168;2022-08-04T14:07:53;100652.31;;;38.19
27986;BMP280;15453;53.692;10.168;2022-08-04T14:10:19;100648.69;;;38.15
27986;BMP280;15453;53.692;10.168;2022-08-04T14:12:46;100656.97;;;38.09
27986;BMP280;15453;53.692;10.168;2022-08-04T14:18:18;100658.00;;;37.96
27986;BMP280;15453;53.692;10.168;2022-08-04T14:21:10;100659.84;;;37.86
27986;BMP280;15453;53.692;10.168;2022-08-04T14:28:40;100654.25;;;37.79
27986;BMP280;15453;53.692;10.168;2022-08-04T14:31:11;100645.75;;;37.76
27986;BMP280;15453;53.692;10.168;2022-08-04T14:33:37;100648.25;;;37.93
27986;BMP280;15453;53.692;10.168;2022-08-04T14:36:04;100644.78;;;38.05
27986;BMP280;15453;53.692;10.168;2022-08-04T14:41:06;100654.81;;;38.17
27986;BMP280;15453;53.692;10.168;2022-08-04T14:43:31;100659.41;;;38.30
27986;BMP280;15453;53.692;10.168;2022-08-04T14:46:03;100659.41;;;38.30
27986;BMP280;15453;53.692;10.168;2022-08-04T14:48:29;100645.06;;;38.34
27986;BMP280;15453;53.692;10.168;2022-08-04T14:50:54;100658.13;;;38.35
27986;BMP280;15453;53.692;10.168;2022-08-04T14:53:22;100658.13;;;38.35
27986;BMP280;15453;53.692;10.168;2022-08-04T14:55:54;100670.22;;;38.42
27986;BMP280;15453;53.692;10.168;2022-08-04T14:58:31;100670.22;;;38.42
27986;BMP280;15453;53.692;10.168;2022-08-04T15:00:58;100659.19;;;38.41
27986;BMP280;15453;53.692;10.168;2022-08-04T15:03:25;100670.66;;;38.41
27986;BMP280;15453;53.692;10.168;2022-08-04T15:05:54;100688.72;;;38.38
27986;BMP280;15453;53.692;10.168;2022-08-04T15:08:20;100692.06;;;38.33
27986;BMP280;15453;53.692;10.168;2022-08-04T15:10:45;100713.13;;;38.23
27986;BMP280;15453;53.692;10.168;2022-08-04T15:13:11;100738.00;;;38.03
27986;BMP280;15453;53.692;10.168;2022-08-04T15:15:39;100738.00;;;38.03
27986;BMP280;15453;53.692;10.168;2022-08-04T15:18:11;100724.44;;;37.84
27986;BMP280;15453;53.692;10.168;2022-08-04T15:20:37;100734.13;;;37.67
27986;BMP280;15453;53.692;10.168;2022-08-04T15:23:03;100730.66;;;37.52
27986;BMP280;15453;53.692;10.168;2022-08-04T15:25:38;100742.59;;;37.17
27986;BMP280;15453;53.692;10.168;2022-08-04T15:28:04;100742.59;;;37.17
27986;BMP280;15453;53.692;10.168;2022-08-04T15:30:31;100748.00;;;36.78
27986;BMP280;15453;53.692;10.168;2022-08-04T15:32:59;100748.00;;;36.78
27986;BMP280;15453;53.692;10.168;2022-08-04T15:35:26;100750.66;;;36.55
27986;BMP280;15453;53.692;10.168;2022-08-04T15:38:08;100777.63;;;36.07
27986;BMP280;15453;53.692;10.168;2022-08-04T15:41:05;100781.94;;;35.78
27986;BMP280;15453;53.692;10.168;2022-08-04T15:49:21;100790.81;;;35.21
27986;BMP280;15453;53.692;10.168;2022-08-04T15:51:58;100797.84;;;34.78
27986;BMP280;15453;53.692;10.168;2022-08-04T15:54:24;100804.00;;;34.59
27986;BMP280;15453;53.692;10.168;2022-08-04T15:56:50;100804.00;;;34.59
27986;BMP280;15453;53.692;10.168;2022-08-04T15:59:15;100823.13;;;34.38
27986;BMP280;15453;53.692;10.168;2022-08-04T16:01:41;100861.28;;;34.09
27986;BMP280;15453;53.692;10.168;2022-08-04T16:04:21;100861.28;;;34.09
27986;BMP280;15453;53.692;10.168;2022-08-04T16:06:47;100875.09;;;33.86
27986;BMP280;15453;53.692;10.168;2022-08-04T16:11:40;100968.22;;;33.38
27986;BMP280;15453;53.692;10.168;2022-08-04T16:14:09;100968.22;;;33.38
27986;BMP280;15453;53.692;10.168;2022-08-04T16:19:24;101052.69;;;33.01
27986;BMP280;15453;53.692;10.168;2022-08-04T16:21:57;101109.75;;;32.89
27986;BMP280;15453;53.692;10.168;2022-08-04T16:24:34;101121.78;;;32.79
27986;BMP280;15453;53.692;10.168;2022-08-04T16:27:01;101119.56;;;32.62
27986;BMP280;15453;53.692;10.168;2022-08-04T16:29:40;101090.69;;;32.53
27986;BMP280;15453;53.692;10.168;2022-08-04T16:32:10;101057.75;;;32.38
27986;BMP280;15453;53.692;10.168;2022-08-04T16:34:39;101026.31;;;32.21
27986;BMP280;15453;53.692;10.168;2022-08-04T16:37:06;101026.31;;;32.21
27986;BMP280;15453;53.692;10.168;2022-08-04T16:39:31;101031.00;;;32.06
27986;BMP280;15453;53.692;10.168;2022-08-04T16:41:57;101002.09;;;31.94
27986;BMP280;15453;53.692;10.168;2022-08-04T16:44:33;100991.47;;;31.84
27986;BMP280;15453;53.692;10.168;2022-08-04T16:47:02;100992.44;;;31.69
27986;BMP280;15453;53.692;10.168;2022-08-04T16:49:29;100992.44;;;31.69
27986;BMP280;15453;53.692;10.168;2022-08-04T16:52:03;100975.31;;;31.58
27986;BMP280;15453;53.692;10.168;2022-08-04T16:54:30;100974.00;;;31.49
27986;BMP280;15453;53.692;10.168;2022-08-04T16:56:56;100974.00;;;31.49
27986;BMP280;15453;53.692;10.168;2022-08-04T16:59:22;100969.09;;;31.46
27986;BMP280;15453;53.692;10.168;2022-08-04T17:01:50;100963.72;;;31.37
27986;BMP280;15453;53.692;10.168;2022-08-04T17:04:15;100953.13;;;31.31